createdAt,value
2022-12-11T00:00:29.216Z,1.08
2022-12-11T00:01:30.691Z,1.03
2022-12-11T00:02:32.217Z,0.98
2022-12-11T00:03:34.032Z,0.92
2022-12-11T00:04:35.739Z,0.94
2022-12-11T00:05:40.359Z,0.92
2022-12-11T00:06:42.554Z,0.90
2022-12-11T00:07:44.133Z,0.89
2022-12-11T00:08:45.876Z,0.88
2022-12-11T00:09:47.303Z,0.87
2022-12-11T00:10:49.804Z,0.85
2022-12-11T00:11:51.269Z,0.82
2022-12-11T00:12:53.084Z,0.79
2022-12-11T00:13:54.542Z,0.76
2022-12-11T00:14:56.018Z,0.74
2022-12-11T00:16:00.566Z,0.74
2022-12-11T00:17:02.115Z,0.74
2022-12-11T00:18:03.942Z,0.76
2022-12-11T00:19:05.801Z,0.77
2022-12-11T00:20:08.232Z,0.76
2022-12-11T00:21:14.276Z,0.76
2022-12-11T00:22:16.767Z,0.80
2022-12-11T00:23:18.519Z,0.85
2022-12-11T01:12:41.561Z,0.79
2022-12-11T01:13:43.307Z,0.76
2022-12-11T01:14:44.749Z,0.75
2022-12-11T01:15:46.189Z,0.69
2022-12-11T01:16:47.716Z,0.71
2022-12-11T01:17:51.103Z,0.71
2022-12-11T01:18:52.533Z,0.71
2022-12-11T01:19:54.694Z,0.69
2022-12-11T01:20:56.118Z,0.69
2022-12-11T01:21:57.639Z,0.68
2022-12-11T01:23:01.060Z,0.67
2022-12-11T01:24:02.561Z,0.68
2022-12-11T01:25:05.241Z,0.67
2022-12-11T01:26:09.662Z,0.72
2022-12-11T01:27:11.078Z,0.72
2022-12-11T01:28:12.871Z,0.73
2022-12-11T01:29:14.369Z,0.67
2022-12-11T01:30:15.810Z,0.64
2022-12-11T01:31:19.019Z,0.64
2022-12-11T01:32:23.908Z,0.69
2022-12-11T01:33:28.816Z,0.68
2022-12-11T01:34:34.288Z,0.70
2022-12-11T01:35:36.531Z,0.69
2022-12-11T01:36:38.218Z,0.70
2022-12-11T01:37:40.096Z,0.71
2022-12-11T01:38:41.952Z,0.76
2022-12-11T01:39:43.383Z,0.79
2022-12-11T01:40:49.552Z,0.80
2022-12-11T01:41:53.539Z,0.79
2022-12-11T01:42:55.013Z,0.83
2022-12-11T01:44:31.435Z,0.83
2022-12-11T01:45:42.955Z,0.83
2022-12-11T01:46:44.463Z,0.84
2022-12-11T01:47:45.907Z,0.81
2022-12-11T01:48:50.752Z,0.82
2022-12-11T01:49:52.248Z,0.84
2022-12-11T01:50:56.461Z,0.85
2022-12-11T01:52:02.512Z,0.79
2022-12-11T01:53:08.340Z,0.78
2022-12-11T01:54:12.420Z,0.76
2022-12-11T01:55:14.955Z,0.76
2022-12-11T01:56:16.911Z,0.76
2022-12-11T01:57:18.455Z,0.81
2022-12-11T01:58:23.379Z,0.79
2022-12-11T01:59:29.162Z,0.75
2022-12-11T02:00:30.633Z,0.73
2022-12-11T02:01:34.506Z,0.69
2022-12-11T02:02:36.466Z,0.68
2022-12-11T02:03:37.961Z,0.66
2022-12-11T02:04:42.522Z,0.63
2022-12-11T02:05:44.275Z,0.67
2022-12-11T02:06:49.575Z,0.67
2022-12-11T02:07:56.057Z,0.70
2022-12-11T02:08:58.202Z,0.71
2022-12-11T02:10:02.367Z,0.69
2022-12-11T02:11:16.814Z,0.69
2022-12-11T02:12:57.575Z,0.68
2022-12-11T02:14:28.150Z,0.68
2022-12-11T02:15:41.899Z,0.65
2022-12-11T02:16:55.342Z,0.66
2022-12-11T02:18:31.420Z,0.65
2022-12-11T02:20:04.150Z,0.67
2022-12-11T02:21:24.309Z,0.62
2022-12-11T02:22:58.743Z,0.67
2022-12-11T02:24:31.576Z,0.66
2022-12-11T02:26:07.653Z,0.68
2022-12-11T02:27:28.829Z,0.74
2022-12-11T02:28:34.971Z,0.73
2022-12-11T02:29:45.126Z,0.72
2022-12-11T02:30:51.872Z,0.72
2022-12-11T02:32:16.331Z,0.72
2022-12-11T02:33:31.967Z,0.73
2022-12-11T02:34:50.681Z,0.74
2022-12-11T02:35:52.939Z,0.78
2022-12-11T02:37:02.335Z,0.81
2022-12-11T02:38:08.809Z,0.84
2022-12-11T02:39:13.421Z,0.86
2022-12-11T02:40:20.492Z,0.86
2022-12-11T02:41:24.187Z,0.87
2022-12-11T02:42:30.619Z,0.88
2022-12-11T02:43:34.290Z,0.88
2022-12-11T02:44:38.149Z,0.89
2022-12-11T02:45:42.504Z,0.89
2022-12-11T02:46:44.628Z,0.90
2022-12-11T02:47:47.946Z,0.90
2022-12-11T02:48:51.389Z,0.93
2022-12-11T02:49:55.690Z,0.95
2022-12-11T02:50:59.567Z,0.97
2022-12-11T02:52:03.938Z,0.95
2022-12-11T02:53:07.080Z,0.99
2022-12-11T02:54:11.980Z,1.01
2022-12-11T02:55:15.980Z,1.00
2022-12-11T02:56:26.120Z,1.00
2022-12-11T02:57:39.710Z,0.99
2022-12-11T02:58:49.954Z,1.00
2022-12-11T02:59:54.569Z,0.99
2022-12-11T03:00:56.261Z,0.92
2022-12-11T03:01:57.929Z,0.96
2022-12-11T03:02:59.557Z,0.95
2022-12-11T03:04:01.190Z,0.91
2022-12-11T03:05:03.043Z,0.92
2022-12-11T03:06:04.794Z,0.92
2022-12-11T03:07:17.097Z,0.95
2022-12-11T03:08:18.659Z,0.95
2022-12-11T03:09:22.257Z,0.96
2022-12-11T03:10:23.758Z,0.98
2022-12-11T03:11:25.209Z,1.00
2022-12-11T03:12:34.128Z,0.99
2022-12-11T03:13:35.577Z,0.95
2022-12-11T03:14:39.347Z,0.91
2022-12-11T03:15:58.762Z,0.91
2022-12-11T03:17:08.001Z,0.86
2022-12-11T03:18:15.107Z,0.84
2022-12-11T03:19:39.805Z,0.83
2022-12-11T03:20:45.242Z,0.85
2022-12-11T03:21:59.075Z,0.89
2022-12-11T03:23:09.438Z,0.92
2022-12-11T03:24:44.081Z,0.96
2022-12-11T03:26:06.663Z,0.96
2022-12-11T03:27:27.469Z,0.96
2022-12-11T03:28:58.605Z,0.94
2022-12-11T03:30:20.471Z,0.91
2022-12-11T03:31:32.052Z,0.94
2022-12-11T03:32:47.903Z,0.99
2022-12-11T03:33:54.736Z,0.98
2022-12-11T03:35:06.109Z,0.96
2022-12-11T03:36:12.875Z,0.92
2022-12-11T03:37:15.644Z,0.91
2022-12-11T03:38:25.584Z,0.88
2022-12-11T03:39:38.819Z,0.92
2022-12-11T03:40:44.374Z,0.93
2022-12-11T03:41:48.910Z,0.94
2022-12-11T03:42:52.571Z,0.96
2022-12-11T03:43:58.136Z,0.96
2022-12-11T03:45:01.934Z,0.98
2022-12-11T03:46:03.909Z,0.99
2022-12-11T03:47:08.070Z,0.97
2022-12-11T03:48:11.349Z,0.96
2022-12-11T03:49:20.784Z,0.96
2022-12-11T03:50:23.877Z,0.97
2022-12-11T03:51:26.188Z,0.98
2022-12-11T03:52:29.272Z,0.97
2022-12-11T03:53:31.417Z,0.96
2022-12-11T03:54:34.766Z,0.97
2022-12-11T03:55:38.394Z,0.93
2022-12-11T03:56:43.904Z,0.95
2022-12-11T03:57:45.481Z,0.93
2022-12-11T03:58:46.950Z,0.87
2022-12-11T03:59:49.864Z,0.83
2022-12-11T04:00:51.335Z,0.84
2022-12-11T04:01:53.284Z,0.88
2022-12-11T04:03:14.060Z,0.85
2022-12-11T04:04:16.183Z,0.86
2022-12-11T04:05:17.677Z,0.86
2022-12-11T04:06:19.246Z,0.84
2022-12-11T04:07:20.668Z,0.84
2022-12-11T04:08:22.889Z,0.85
2022-12-11T04:09:24.361Z,0.84
2022-12-11T04:10:26.155Z,0.83
2022-12-11T04:11:36.881Z,0.84
2022-12-11T04:12:38.307Z,0.85
2022-12-11T04:13:41.311Z,0.86
2022-12-11T04:15:01.085Z,0.87
2022-12-11T04:16:02.885Z,0.86
2022-12-11T04:17:05.001Z,0.90
2022-12-11T04:18:25.894Z,0.89
2022-12-11T04:19:45.866Z,0.87
2022-12-11T04:21:06.150Z,0.86
2022-12-11T04:22:28.082Z,0.85
2022-12-11T04:23:48.375Z,0.79
2022-12-11T04:24:50.438Z,0.81
2022-12-11T04:25:52.240Z,0.77
2022-12-11T04:26:53.785Z,0.78
2022-12-11T04:27:55.185Z,0.78
2022-12-11T04:28:56.639Z,0.80
2022-12-11T04:29:58.106Z,0.78
2022-12-11T04:31:00.301Z,0.76
2022-12-11T04:32:01.785Z,0.79
2022-12-11T04:33:04.202Z,0.82
2022-12-11T04:34:05.796Z,0.83
2022-12-11T04:35:09.730Z,0.86
2022-12-11T04:36:13.071Z,0.85
2022-12-11T04:37:14.545Z,0.85
2022-12-11T04:38:15.958Z,0.88
2022-12-11T04:39:17.495Z,0.90
2022-12-11T04:40:20.165Z,0.94
2022-12-11T04:41:21.672Z,0.94
2022-12-11T04:42:23.148Z,0.90
2022-12-11T04:43:24.588Z,0.89
2022-12-11T04:44:26.062Z,0.89
2022-12-11T04:45:27.498Z,0.89
2022-12-11T04:46:29.478Z,0.89
2022-12-11T04:47:30.972Z,0.89
2022-12-11T04:48:32.608Z,0.92
2022-12-11T04:49:34.050Z,0.95
2022-12-11T04:50:35.491Z,0.92
2022-12-11T04:51:37.239Z,0.93
2022-12-11T04:52:39.118Z,0.94
2022-12-11T04:53:41.164Z,0.94
2022-12-11T04:54:42.584Z,0.95
2022-12-11T04:55:44.041Z,0.90
2022-12-11T04:56:45.844Z,0.87
2022-12-11T04:57:47.328Z,0.86
2022-12-11T04:58:49.535Z,0.88
2022-12-11T04:59:51.133Z,0.86
2022-12-11T05:00:53.486Z,0.84
2022-12-11T05:01:55.316Z,0.86
2022-12-11T05:02:56.797Z,0.88
2022-12-11T05:03:59.600Z,0.88
2022-12-11T05:05:01.148Z,0.87
2022-12-11T05:06:02.672Z,0.87
2022-12-11T05:07:04.643Z,0.87
2022-12-11T05:08:06.227Z,0.88
2022-12-11T05:09:12.072Z,0.86
2022-12-11T05:10:13.513Z,0.85
2022-12-11T05:11:16.182Z,0.86
2022-12-11T05:12:17.963Z,0.86
2022-12-11T05:13:19.404Z,0.87
2022-12-11T05:14:21.168Z,0.86
2022-12-11T05:15:22.864Z,0.88
2022-12-11T05:16:24.390Z,0.89
2022-12-11T05:17:26.280Z,0.87
2022-12-11T05:18:27.708Z,0.81
2022-12-11T05:19:29.194Z,0.80
2022-12-11T05:20:30.628Z,0.80
2022-12-11T05:21:35.141Z,0.75
2022-12-11T05:22:38.540Z,0.73
2022-12-11T05:23:39.994Z,0.72
2022-12-11T05:24:41.375Z,0.73
2022-12-11T05:25:42.804Z,0.74
2022-12-11T05:26:44.751Z,0.73
2022-12-11T05:27:46.238Z,0.73
2022-12-11T05:28:54.226Z,0.73
2022-12-11T05:29:59.352Z,0.79
2022-12-11T05:31:08.021Z,0.76
2022-12-11T05:32:09.785Z,0.74
2022-12-11T05:33:11.211Z,0.70
2022-12-11T05:34:12.729Z,0.70
2022-12-11T05:35:14.246Z,0.73
2022-12-11T05:36:22.677Z,0.76
2022-12-11T05:37:24.752Z,0.78
2022-12-11T05:38:26.654Z,0.76
2022-12-11T05:39:28.108Z,0.74
2022-12-11T05:40:29.586Z,0.77
2022-12-11T05:41:32.736Z,0.80
2022-12-11T05:42:34.817Z,0.80
2022-12-11T05:43:37.082Z,0.73
2022-12-11T05:44:38.524Z,0.68
2022-12-11T05:45:39.957Z,0.69
2022-12-11T05:46:41.501Z,0.70
2022-12-11T05:47:43.354Z,0.59
2022-12-11T05:48:47.018Z,0.41
2022-12-11T05:49:48.540Z,0.39
2022-12-11T05:50:57.941Z,0.42
2022-12-11T05:51:59.512Z,0.49
2022-12-11T05:53:00.998Z,0.57
2022-12-11T05:54:03.005Z,0.60
2022-12-11T05:55:04.698Z,0.61
2022-12-11T05:56:17.779Z,0.60
2022-12-11T05:57:19.248Z,0.56
2022-12-11T05:58:21.596Z,0.57
2022-12-11T05:59:23.036Z,0.59
2022-12-11T06:00:24.456Z,0.59
2022-12-11T06:01:32.409Z,0.57
2022-12-11T06:02:37.765Z,0.60
2022-12-11T06:03:39.364Z,0.64
2022-12-11T06:04:40.881Z,0.63
2022-12-11T06:05:42.859Z,0.58
2022-12-11T06:06:44.711Z,0.57
2022-12-11T06:07:46.178Z,0.54
2022-12-11T06:08:51.179Z,0.51
2022-12-11T06:09:52.610Z,0.56
2022-12-11T06:10:54.110Z,0.54
2022-12-11T06:11:55.858Z,0.57
2022-12-11T06:12:57.302Z,0.57
2022-12-11T06:13:59.605Z,0.54
2022-12-11T06:15:01.042Z,0.34
2022-12-11T06:16:04.126Z,0.19
2022-12-11T06:17:06.003Z,0.18
2022-12-11T06:18:07.563Z,0.18
2022-12-11T06:19:18.348Z,0.17
2022-12-11T06:20:19.776Z,0.14
2022-12-11T06:21:23.155Z,0.14
2022-12-11T06:22:24.987Z,0.14
2022-12-11T06:23:26.426Z,0.15
2022-12-11T06:24:27.866Z,0.14
2022-12-11T06:25:30.141Z,0.18
2022-12-11T06:26:32.172Z,0.19
2022-12-11T06:27:34.059Z,0.21
2022-12-11T06:28:35.611Z,0.17
2022-12-11T06:29:37.050Z,0.18
2022-12-11T06:30:39.380Z,0.18
2022-12-11T06:31:41.280Z,0.13
2022-12-11T06:32:44.272Z,0.14
2022-12-11T06:33:46.233Z,0.15
2022-12-11T06:34:47.861Z,0.18
2022-12-11T06:35:49.262Z,0.18
2022-12-11T06:36:50.657Z,0.18
2022-12-11T06:37:52.190Z,0.18
2022-12-11T06:38:55.293Z,0.19
2022-12-11T06:39:56.611Z,0.20
2022-12-11T06:41:01.171Z,0.18
2022-12-11T06:42:02.920Z,0.23
2022-12-11T06:43:04.312Z,0.22
2022-12-11T06:44:05.782Z,0.19
2022-12-11T06:45:07.674Z,0.18
2022-12-11T06:46:12.390Z,0.18
2022-12-11T06:47:14.262Z,0.19
2022-12-11T06:48:15.832Z,0.16
2022-12-11T06:49:17.299Z,0.16
2022-12-11T06:50:18.705Z,0.20
2022-12-11T06:51:22.234Z,0.19
2022-12-11T06:52:25.360Z,0.21
2022-12-11T06:53:26.694Z,0.24
2022-12-11T06:54:28.611Z,0.17
2022-12-11T06:55:30.190Z,0.19
2022-12-11T06:56:34.153Z,0.20
2022-12-11T06:57:36.047Z,0.13
2022-12-11T06:58:38.712Z,0.19
2022-12-11T06:59:40.252Z,0.20
2022-12-11T07:00:41.769Z,0.17
2022-12-11T07:01:43.258Z,0.20
2022-12-11T07:02:45.140Z,0.19
2022-12-11T07:03:46.863Z,0.13
2022-12-11T07:04:53.386Z,0.15
2022-12-11T07:06:02.977Z,0.21
2022-12-11T07:07:04.392Z,0.24
2022-12-11T07:08:07.674Z,0.25
2022-12-11T07:09:10.027Z,0.19
2022-12-11T07:10:11.960Z,0.14
2022-12-11T07:11:15.299Z,-0.02
2022-12-11T07:12:17.518Z,-0.10
2022-12-11T07:13:19.305Z,-0.03
2022-12-11T07:14:20.852Z,-0.04
2022-12-11T07:15:22.452Z,-0.04
2022-12-11T07:16:23.970Z,-0.06
2022-12-11T07:17:25.476Z,0.01
2022-12-11T07:18:27.280Z,0.08
2022-12-11T07:19:28.830Z,0.13
2022-12-11T07:20:30.318Z,0.16
2022-12-11T07:21:32.219Z,0.16
2022-12-11T07:22:33.973Z,0.20
2022-12-11T07:23:35.634Z,0.26
2022-12-11T07:24:37.148Z,0.29
2022-12-11T07:25:38.600Z,0.25
2022-12-11T07:26:40.172Z,0.27
2022-12-11T07:27:42.156Z,0.33
2022-12-11T07:28:43.981Z,0.33
2022-12-11T07:29:45.448Z,0.28
2022-12-11T07:30:47.349Z,0.31
2022-12-11T07:31:48.862Z,0.30
2022-12-11T07:32:50.690Z,0.27
2022-12-11T07:33:57.396Z,0.25
2022-12-11T07:34:58.871Z,0.28
2022-12-11T07:36:03.270Z,0.29
2022-12-11T07:37:04.784Z,0.26
2022-12-11T07:38:06.235Z,0.21
2022-12-11T07:39:09.055Z,0.22
2022-12-11T07:40:11.043Z,0.24
2022-12-11T07:41:13.705Z,0.23
2022-12-11T07:42:15.149Z,0.18
2022-12-11T07:43:16.937Z,0.17
2022-12-11T07:44:18.387Z,0.16
2022-12-11T07:45:19.894Z,0.17
2022-12-11T07:46:24.348Z,0.18
2022-12-11T07:47:25.814Z,0.20
2022-12-11T07:48:27.637Z,0.20
2022-12-11T07:49:29.397Z,0.23
2022-12-11T07:50:35.096Z,0.23
2022-12-11T07:51:39.621Z,0.25
2022-12-11T07:52:41.126Z,0.29
2022-12-11T07:53:44.461Z,0.30
2022-12-11T07:54:45.897Z,0.21
2022-12-11T07:55:47.315Z,0.22
2022-12-11T07:56:53.388Z,0.28
2022-12-11T07:57:55.648Z,0.31
2022-12-11T07:59:03.531Z,0.35
2022-12-11T08:00:05.716Z,0.32
2022-12-11T08:01:13.402Z,0.30
2022-12-11T08:02:14.965Z,0.29
2022-12-11T08:03:17.354Z,0.31
2022-12-11T08:04:18.853Z,0.36
2022-12-11T08:05:20.286Z,0.25
2022-12-11T08:06:27.515Z,0.26
2022-12-11T08:07:28.986Z,0.32
2022-12-11T08:08:30.787Z,0.25
2022-12-11T08:09:32.427Z,0.30
2022-12-11T08:10:33.919Z,0.34
2022-12-11T08:11:35.584Z,0.31
2022-12-11T08:12:37.060Z,0.33
2022-12-11T08:13:38.766Z,0.34
2022-12-11T08:14:40.210Z,0.33
2022-12-11T08:15:41.773Z,0.30
2022-12-11T08:16:44.279Z,0.29
2022-12-11T08:17:45.779Z,0.28
2022-12-11T08:18:48.381Z,0.33
2022-12-11T08:19:49.805Z,0.30
2022-12-11T08:20:51.269Z,0.36
2022-12-11T08:21:52.718Z,0.36
2022-12-11T08:22:58.868Z,0.34
2022-12-11T08:24:01.038Z,0.38
2022-12-11T08:25:02.594Z,0.36
2022-12-11T08:26:10.039Z,0.38
2022-12-11T08:27:11.506Z,0.42
2022-12-11T08:28:13.315Z,0.46
2022-12-11T08:29:15.056Z,0.50
2022-12-11T08:30:16.597Z,0.49
2022-12-11T08:31:18.684Z,0.52
2022-12-11T08:32:20.165Z,0.55
2022-12-11T08:33:22.300Z,0.58
2022-12-11T08:34:23.816Z,0.60
2022-12-11T08:35:26.013Z,0.62
2022-12-11T08:36:27.595Z,0.62
2022-12-11T08:37:29.659Z,0.66
2022-12-11T08:38:31.830Z,0.63
2022-12-11T08:39:36.038Z,0.58
2022-12-11T08:40:37.559Z,0.49
2022-12-11T08:41:39.180Z,0.53
2022-12-11T08:42:40.658Z,0.57
2022-12-11T08:43:42.597Z,0.58
2022-12-11T08:44:44.035Z,0.55
2022-12-11T08:45:46.890Z,0.59
2022-12-11T08:46:48.496Z,0.60
2022-12-11T08:47:49.932Z,0.57
2022-12-11T08:48:52.325Z,0.65
2022-12-11T08:49:53.833Z,0.71
2022-12-11T08:50:55.389Z,0.70
2022-12-11T08:51:56.835Z,0.70
2022-12-11T08:52:58.296Z,0.67
2022-12-11T08:54:01.457Z,0.64
2022-12-11T08:55:03.351Z,0.68
2022-12-11T08:56:09.403Z,0.74
2022-12-11T08:57:10.899Z,0.72
2022-12-11T08:58:12.411Z,0.73
2022-12-11T08:59:14.158Z,0.75
2022-12-11T09:00:18.647Z,0.74
2022-12-11T09:01:23.534Z,0.73
2022-12-11T09:02:25.075Z,0.78
2022-12-11T09:03:26.909Z,0.80
2022-12-11T09:04:28.472Z,0.82
2022-12-11T09:05:30.248Z,0.82
2022-12-11T09:06:33.435Z,0.81
2022-12-11T09:07:36.922Z,0.75
2022-12-11T09:08:39.081Z,0.79
2022-12-11T09:09:40.634Z,0.80
2022-12-11T09:10:42.216Z,0.75
2022-12-11T09:11:43.689Z,0.75
2022-12-11T09:12:45.146Z,0.74
2022-12-11T09:13:47.153Z,0.81
2022-12-11T09:14:48.639Z,0.84
2022-12-11T09:15:50.097Z,0.87
2022-12-11T09:16:51.593Z,0.88
2022-12-11T09:17:53.027Z,0.84
2022-12-11T09:18:58.397Z,0.84
2022-12-11T09:19:59.959Z,0.86
2022-12-11T09:21:07.704Z,0.85
2022-12-11T09:22:11.194Z,0.85
2022-12-11T09:23:12.659Z,0.82
2022-12-11T09:24:15.474Z,0.74
2022-12-11T09:25:17.018Z,0.71
2022-12-11T09:26:19.083Z,0.79
2022-12-11T09:27:21.386Z,0.79
2022-12-11T09:28:23.544Z,0.82
2022-12-11T09:29:25.397Z,0.82
2022-12-11T09:30:26.856Z,0.82
2022-12-11T09:31:30.911Z,0.63
2022-12-11T09:32:32.439Z,0.61
2022-12-11T09:33:34.225Z,0.62
2022-12-11T09:34:35.712Z,0.68
2022-12-11T09:35:37.502Z,0.74
2022-12-11T09:36:40.373Z,0.77
2022-12-11T09:37:41.875Z,0.72
2022-12-11T09:38:46.382Z,0.66
2022-12-11T09:39:47.918Z,0.61
2022-12-11T09:40:49.387Z,0.63
2022-12-11T09:41:57.085Z,0.48
2022-12-11T09:43:06.428Z,0.56
2022-12-11T09:44:27.401Z,0.51
2022-12-11T09:45:29.211Z,0.59
2022-12-11T09:46:34.394Z,0.44
2022-12-11T09:47:50.356Z,0.37
2022-12-11T09:48:53.690Z,0.49
2022-12-11T09:50:04.989Z,0.53
2022-12-11T09:51:18.735Z,0.44
2022-12-11T09:52:35.964Z,0.30
2022-12-11T09:53:38.293Z,0.33
2022-12-11T09:54:52.849Z,0.47
2022-12-11T09:56:01.065Z,0.55
2022-12-11T09:57:35.927Z,0.41
2022-12-11T09:59:06.396Z,0.43
2022-12-11T10:00:19.156Z,0.48
2022-12-11T10:01:28.319Z,0.50
2022-12-11T10:02:38.853Z,0.61
2022-12-11T10:03:55.880Z,0.71
2022-12-11T10:05:26.478Z,0.74
2022-12-11T10:06:41.982Z,0.69
2022-12-11T10:08:00.670Z,0.74
2022-12-11T10:09:34.237Z,0.61
2022-12-11T10:10:56.637Z,0.65
2022-12-11T10:12:27.858Z,0.81
2022-12-11T10:13:43.550Z,0.82
2022-12-11T10:15:03.897Z,0.81
2022-12-11T10:16:22.934Z,0.80
2022-12-11T10:17:37.135Z,0.81
2022-12-11T10:18:39.294Z,0.78
2022-12-11T10:19:42.325Z,0.73
2022-12-11T10:20:45.271Z,0.69
2022-12-11T10:21:47.196Z,0.67
2022-12-11T10:22:51.462Z,0.72
2022-12-11T10:24:03.281Z,0.73
2022-12-11T10:25:23.553Z,0.71
2022-12-11T10:26:25.168Z,0.78
2022-12-11T10:27:31.981Z,0.82
2022-12-11T10:28:35.060Z,0.83
2022-12-11T10:29:36.409Z,0.84
2022-12-11T10:30:41.200Z,0.85
2022-12-11T10:31:57.938Z,0.78
2022-12-11T10:33:08.059Z,0.81
2022-12-11T10:34:19.177Z,0.85
2022-12-11T10:35:29.393Z,0.89
2022-12-11T10:36:37.289Z,0.86
2022-12-11T10:37:39.644Z,0.83
2022-12-11T10:38:44.731Z,0.84
2022-12-11T10:39:46.183Z,0.81
2022-12-11T10:40:58.296Z,0.88
2022-12-11T10:41:59.777Z,0.90
2022-12-11T10:43:01.215Z,0.92
2022-12-11T10:44:15.397Z,0.98
2022-12-11T10:45:19.332Z,1.00
2022-12-11T10:46:29.357Z,0.97
2022-12-11T10:47:31.205Z,0.97
2022-12-11T10:48:33.163Z,0.98
2022-12-11T10:49:37.127Z,1.01
2022-12-11T10:50:38.995Z,1.00
2022-12-11T10:51:40.840Z,1.02
2022-12-11T10:52:45.456Z,0.98
2022-12-11T10:53:55.846Z,1.02
2022-12-11T10:55:08.751Z,1.02
2022-12-11T10:56:12.202Z,0.93
2022-12-11T10:57:14.626Z,0.91
2022-12-11T10:58:28.638Z,0.94
2022-12-11T10:59:44.312Z,0.94
2022-12-11T11:00:46.773Z,0.94
2022-12-11T11:01:48.380Z,0.92
2022-12-11T11:02:50.053Z,0.90
2022-12-11T11:04:03.181Z,0.94
2022-12-11T11:05:14.658Z,1.01
2022-12-11T11:06:19.785Z,1.01
2022-12-11T11:07:25.308Z,1.00
2022-12-11T11:08:27.912Z,0.95
2022-12-11T11:09:33.757Z,0.99
2022-12-11T11:10:35.950Z,1.05
2022-12-11T11:11:39.405Z,1.01
2022-12-11T11:12:42.132Z,1.01
2022-12-11T11:13:43.549Z,1.01
2022-12-11T11:14:44.990Z,0.97
2022-12-11T11:15:46.971Z,0.97
2022-12-11T11:16:55.101Z,0.99
2022-12-11T11:18:13.088Z,1.03
2022-12-11T11:19:33.801Z,0.96
2022-12-11T11:20:36.088Z,1.00
2022-12-11T11:21:37.604Z,1.03
2022-12-11T11:22:44.460Z,1.01
2022-12-11T11:23:50.569Z,0.91
2022-12-11T11:24:59.160Z,0.88
2022-12-11T11:26:06.380Z,0.88
2022-12-11T11:27:34.227Z,0.84
2022-12-11T11:28:39.820Z,0.85
2022-12-11T11:29:42.295Z,0.91
2022-12-11T11:30:57.492Z,0.93
2022-12-11T11:32:15.549Z,0.91
2022-12-11T11:33:22.093Z,0.92
2022-12-11T11:34:26.211Z,0.87
2022-12-11T11:35:30.487Z,0.87
2022-12-11T11:36:35.306Z,0.82
2022-12-11T11:37:38.628Z,0.63
2022-12-11T11:39:00.166Z,0.68
2022-12-11T11:40:17.412Z,0.62
2022-12-11T11:42:18.044Z,0.60
2022-12-11T11:43:43.277Z,0.43
2022-12-11T11:44:58.469Z,0.42
2022-12-11T11:46:06.746Z,0.24
2022-12-11T11:47:17.395Z,0.26
2022-12-11T11:48:30.851Z,0.26
2022-12-11T11:49:55.635Z,0.10
2022-12-11T11:50:58.708Z,-0.06
2022-12-11T11:52:03.709Z,0.06
2022-12-11T11:53:13.588Z,0.18
2022-12-11T11:54:35.592Z,0.33
2022-12-11T11:55:42.169Z,0.40
2022-12-11T11:56:44.593Z,0.43
2022-12-11T11:58:14.400Z,0.41
2022-12-11T11:59:22.936Z,0.36
2022-12-11T12:00:31.927Z,0.43
2022-12-11T12:01:35.333Z,0.52
2022-12-11T12:02:37.506Z,0.47
2022-12-11T12:03:39.133Z,0.50
2022-12-11T12:04:40.941Z,0.52
2022-12-11T12:06:01.368Z,0.54
2022-12-11T12:07:30.864Z,0.48
2022-12-11T12:08:51.110Z,0.58
2022-12-11T12:10:04.511Z,0.65
2022-12-11T12:11:37.867Z,0.66
2022-12-11T12:13:04.100Z,0.72
2022-12-11T12:14:50.725Z,0.63
2022-12-11T12:15:58.718Z,0.65
2022-12-11T12:17:21.404Z,0.70
2022-12-11T12:18:48.389Z,0.71
2022-12-11T12:19:49.872Z,0.76
2022-12-11T12:21:15.170Z,0.77
2022-12-11T12:22:38.067Z,0.75
2022-12-11T12:24:04.021Z,0.84
2022-12-11T12:25:47.300Z,0.85
2022-12-11T12:27:50.434Z,0.95
2022-12-11T12:29:01.372Z,0.77
2022-12-11T12:30:18.773Z,0.81
2022-12-11T12:31:36.505Z,0.86
2022-12-11T12:32:44.005Z,0.96
2022-12-11T12:33:53.509Z,1.02
2022-12-11T12:35:34.776Z,1.08
2022-12-11T12:37:10.687Z,1.06
2022-12-11T12:38:31.151Z,1.02
2022-12-11T12:39:38.596Z,1.03
2022-12-11T12:40:48.521Z,1.06
2022-12-11T12:42:07.103Z,0.94
2022-12-11T12:43:27.564Z,0.97
2022-12-11T12:44:40.605Z,0.98
2022-12-11T12:46:21.543Z,1.01
2022-12-11T12:47:23.173Z,0.98
2022-12-11T12:48:27.292Z,0.95
2022-12-11T12:49:36.925Z,1.05
2022-12-11T12:50:48.749Z,1.12
2022-12-11T12:51:52.780Z,1.13
2022-12-11T12:52:56.022Z,1.11
2022-12-11T12:54:01.531Z,1.12
2022-12-11T12:55:18.921Z,1.08
2022-12-11T12:56:22.531Z,1.08
2022-12-11T12:57:24.553Z,1.15
2022-12-11T12:58:35.576Z,1.20
2022-12-11T12:59:37.110Z,1.22
2022-12-11T13:00:43.720Z,1.16
2022-12-11T13:01:52.595Z,1.15
2022-12-11T13:02:56.125Z,1.15
2022-12-11T13:04:04.031Z,1.13
2022-12-11T13:05:19.830Z,1.16
2022-12-11T13:06:33.174Z,1.11
2022-12-11T13:07:35.232Z,0.93
2022-12-11T13:08:50.371Z,1.04
2022-12-11T13:10:19.499Z,1.11
2022-12-11T13:11:30.824Z,1.13
2022-12-11T13:12:51.307Z,1.11
2022-12-11T13:14:06.397Z,1.18
2022-12-11T13:15:29.393Z,1.28
2022-12-11T13:16:39.889Z,1.33
2022-12-11T13:17:41.859Z,1.36
2022-12-11T13:18:45.310Z,1.31
2022-12-11T13:19:48.557Z,1.21
2022-12-11T13:20:51.156Z,1.19
2022-12-11T13:22:00.294Z,1.22
2022-12-11T13:23:07.500Z,1.25
2022-12-11T13:24:27.843Z,1.19
2022-12-11T13:25:31.922Z,1.23
2022-12-11T13:26:33.895Z,1.21
2022-12-11T13:27:35.589Z,1.14
2022-12-11T13:28:40.048Z,1.17
2022-12-11T13:29:42.488Z,1.09
2022-12-11T13:30:43.957Z,1.08
2022-12-11T13:31:45.846Z,1.08
2022-12-11T13:33:07.998Z,1.07
2022-12-11T13:34:23.821Z,1.12
2022-12-11T13:35:25.597Z,1.06
2022-12-11T13:36:31.670Z,0.98
2022-12-11T13:37:38.593Z,0.99
2022-12-11T13:38:48.167Z,0.98
2022-12-11T13:39:49.752Z,0.98
2022-12-11T13:40:55.389Z,0.98
2022-12-11T13:42:01.129Z,0.94
2022-12-11T13:43:08.319Z,0.85
2022-12-11T13:44:20.050Z,0.72
2022-12-11T13:45:43.284Z,0.71
2022-12-11T13:46:44.844Z,0.80
2022-12-11T13:47:48.026Z,0.85
2022-12-11T13:48:57.158Z,0.91
2022-12-11T13:50:18.660Z,0.95
2022-12-11T13:51:21.653Z,0.87
2022-12-11T13:52:28.906Z,0.71
2022-12-11T13:53:30.799Z,0.79
2022-12-11T13:54:36.709Z,0.75
2022-12-11T13:55:38.147Z,0.72
2022-12-11T13:56:39.830Z,0.79
2022-12-11T13:57:46.089Z,0.81
2022-12-11T13:58:48.382Z,0.71
2022-12-11T13:59:55.222Z,0.68
2022-12-11T14:01:28.780Z,0.69
2022-12-11T14:02:35.383Z,0.78
2022-12-11T14:03:41.209Z,0.82
2022-12-11T14:04:42.903Z,0.81
2022-12-11T14:05:44.359Z,0.86
2022-12-11T14:06:45.939Z,0.89
2022-12-11T14:07:59.498Z,0.71
2022-12-11T14:09:03.173Z,0.69
2022-12-11T14:10:18.487Z,0.70
2022-12-11T14:11:27.955Z,0.71
2022-12-11T14:12:30.727Z,0.57
2022-12-11T14:13:36.259Z,0.62
2022-12-11T14:14:45.500Z,0.61
2022-12-11T14:15:46.928Z,0.63
2022-12-11T14:16:52.386Z,0.51
2022-12-11T14:17:54.891Z,0.57
2022-12-11T14:19:04.567Z,0.64
2022-12-11T14:20:07.578Z,0.68
2022-12-11T14:21:18.166Z,0.60
2022-12-11T14:22:22.255Z,0.54
2022-12-11T14:23:32.411Z,0.43
2022-12-11T14:24:33.879Z,0.44
2022-12-11T14:25:35.462Z,0.47
2022-12-11T14:26:39.486Z,0.53
2022-12-11T14:27:47.888Z,0.57
2022-12-11T14:28:50.285Z,0.61
2022-12-11T14:29:51.969Z,0.63
2022-12-11T14:30:56.387Z,0.54
2022-12-11T14:32:05.617Z,0.56
2022-12-11T14:33:07.420Z,0.62
2022-12-11T14:34:21.458Z,0.71
2022-12-11T14:35:38.591Z,0.77
2022-12-11T14:36:42.311Z,0.78
2022-12-11T14:37:43.727Z,0.84
2022-12-11T14:38:55.376Z,0.81
2022-12-11T14:40:01.759Z,0.87
2022-12-11T14:41:12.009Z,0.93
2022-12-11T14:42:24.743Z,0.94
2022-12-11T14:43:49.971Z,0.96
2022-12-11T14:44:58.487Z,0.94
2022-12-11T14:46:09.265Z,0.92
2022-12-11T14:47:25.529Z,0.88
2022-12-11T14:48:33.296Z,0.81
2022-12-11T14:49:37.527Z,0.82
2022-12-11T14:50:48.658Z,0.80
2022-12-11T14:51:51.717Z,0.81
2022-12-11T14:52:59.573Z,0.80
2022-12-11T14:54:04.756Z,0.82
2022-12-11T14:55:13.162Z,0.85
2022-12-11T14:56:19.493Z,0.77
2022-12-11T14:57:26.137Z,0.77
2022-12-11T14:58:28.270Z,0.79
2022-12-11T14:59:32.464Z,0.80
2022-12-11T15:00:36.576Z,0.81
2022-12-11T15:01:39.239Z,0.73
2022-12-11T15:02:40.813Z,0.69
2022-12-11T15:03:43.009Z,0.75
2022-12-11T15:04:45.615Z,0.79
2022-12-11T15:05:55.790Z,0.82
2022-12-11T15:06:58.265Z,0.80
2022-12-11T15:08:03.027Z,0.84
2022-12-11T15:09:17.456Z,0.87
2022-12-11T15:10:32.885Z,0.87
2022-12-11T15:11:34.258Z,0.90
2022-12-11T15:12:43.341Z,0.93
2022-12-11T15:13:57.912Z,0.91
2022-12-11T15:15:06.803Z,0.92
2022-12-11T15:16:08.610Z,0.89
2022-12-11T15:17:14.571Z,0.91
2022-12-11T15:18:33.486Z,0.89
2022-12-11T15:19:36.259Z,0.92
2022-12-11T15:20:37.938Z,0.93
2022-12-11T15:21:39.451Z,0.87
2022-12-11T15:22:44.436Z,0.84
2022-12-11T15:23:46.195Z,0.86
2022-12-11T15:24:52.636Z,0.83
2022-12-11T15:25:57.805Z,0.84
2022-12-11T15:27:01.180Z,0.81
2022-12-11T15:28:02.745Z,0.84
2022-12-11T15:29:25.534Z,0.85
2022-12-11T15:30:29.924Z,0.86
2022-12-11T15:31:34.971Z,0.85
2022-12-11T15:32:36.460Z,0.81